Time;durP1;ratioP1;P1;durP2;ratioP2;P2;SDS_P1;SDS_P2;PMS_P1;PMS_P2;Temp;Humidity;BMP_temperature;BMP_pressure;BME280_temperature;BME280_humidity;BME280_pressure;Samples;Min_cycle;Max_cycle;Signal;HPM_P1;HPM_P2
2022/11/20 00:01:19;;;;;;;1999.90;999.90;;;6.10;99.90;;;;;;4989092;28;20959;-69
2022/11/20 00:03:46;;;;;;;1999.90;999.90;;;6.20;99.90;;;;;;4988713;28;20474;-68
2022/11/20 00:06:16;;;;;;;1999.90;999.90;;;6.20;99.90;;;;;;4989453;28;20450;-67
2022/11/20 00:08:44;;;;;;;1999.90;999.90;;;6.10;99.90;;;;;;4988095;28;20455;-67
2022/11/20 00:11:13;;;;;;;1999.90;999.90;;;6.00;99.90;;;;;;4989060;28;20538;-67
2022/11/20 00:13:39;;;;;;;1999.90;999.90;;;6.00;99.90;;;;;;4988260;28;20815;-66
2022/11/20 00:16:09;;;;;;;1999.90;999.90;;;6.00;99.90;;;;;;4983634;28;20451;-69
2022/11/20 00:18:36;;;;;;;1999.90;999.90;;;6.00;99.90;;;;;;4981751;28;20474;-66
2022/11/20 00:21:04;;;;;;;1999.90;999.90;;;6.00;99.90;;;;;;4979678;28;20454;-68
2022/11/20 00:23:32;;;;;;;1999.90;999.90;;;6.00;99.90;;;;;;4988725;28;20442;-66
2022/11/20 00:26:03;;;;;;;1999.90;999.90;;;6.00;99.90;;;;;;4988206;28;20442;-67
2022/11/20 00:28:30;;;;;;;1999.90;999.90;;;6.00;99.90;;;;;;4989325;28;20454;-66
2022/11/20 00:31:02;;;;;;;1999.90;999.90;;;6.10;99.90;;;;;;4988014;28;20541;-66
2022/11/20 00:33:29;;;;;;;1999.90;999.90;;;6.10;99.90;;;;;;4989008;28;20451;-67
2022/11/20 00:36:00;;;;;;;1999.90;999.90;;;6.10;99.90;;;;;;4989341;28;20510;-67
2022/11/20 00:38:27;;;;;;;1999.90;999.90;;;6.00;99.90;;;;;;4990394;28;20457;-69
2022/11/20 00:40:58;;;;;;;1999.90;999.90;;;6.00;99.90;;;;;;4990281;28;20824;-66
2022/11/20 00:43:25;;;;;;;1999.90;999.90;;;6.00;99.90;;;;;;4989548;28;20458;-66
2022/11/20 00:45:52;;;;;;;1999.90;999.90;;;6.00;99.90;;;;;;4990365;28;20447;-67
2022/11/20 00:48:18;;;;;;;1999.90;999.90;;;6.00;99.90;;;;;;4989841;28;20443;-66
2022/11/20 00:50:45;;;;;;;1999.90;999.90;;;6.00;99.90;;;;;;4990414;28;20538;-66
2022/11/20 00:53:12;;;;;;;1999.90;999.90;;;6.10;99.90;;;;;;4989851;28;20878;-67
2022/11/20 00:55:38;;;;;;;1999.90;999.90;;;6.00;99.90;;;;;;4990276;28;20985;-66
2022/11/20 00:58:07;;;;;;;1999.90;999.90;;;6.00;99.90;;;;;;4994667;28;21053;-65
2022/11/20 01:00:33;;;;;;;1999.90;999.90;;;6.00;99.90;;;;;;4994092;28;20473;-66
2022/11/20 01:03:00;;;;;;;1999.90;999.90;;;6.00;99.90;;;;;;4994520;28;20543;-66
2022/11/20 01:05:27;;;;;;;1999.90;999.90;;;5.90;99.90;;;;;;4993899;28;20466;-66
2022/11/20 01:07:54;;;;;;;1999.90;999.90;;;5.90;99.90;;;;;;4994352;28;20442;-66
2022/11/20 01:10:20;;;;;;;1999.90;999.90;;;5.80;99.90;;;;;;4993770;28;20529;-67
2022/11/20 01:13:36;;;;;;;1999.90;999.90;;;6.00;99.90;;;;;;4993646;28;20489;-66
2022/11/20 01:15:36;;;;;;;1999.90;999.90;;;5.90;99.90;;;;;;4993491;28;20475;-66
2022/11/20 01:18:03;;;;;;;1999.90;999.90;;;5.80;99.90;;;;;;4994054;28;20454;-67
2022/11/20 01:20:30;;;;;;;1999.90;999.90;;;5.80;99.90;;;;;;4993979;28;20450;-65
2022/11/20 01:22:56;;;;;;;1999.90;999.90;;;5.80;99.90;;;;;;4993286;28;20443;-66
2022/11/20 01:25:23;;;;;;;1999.90;999.90;;;5.80;99.90;;;;;;4993625;28;20493;-66
2022/11/20 01:27:50;;;;;;;1999.90;999.90;;;5.90;99.90;;;;;;4993125;28;20940;-66
2022/11/20 01:30:16;;;;;;;1999.90;999.90;;;5.90;99.90;;;;;;4993873;28;20454;-66
2022/11/20 01:32:45;;;;;;;1999.90;999.90;;;5.90;99.90;;;;;;4992859;28;20845;-66
2022/11/20 01:35:11;;;;;;;1999.90;999.90;;;5.80;99.90;;;;;;4993599;28;20477;-66
2022/11/20 01:37:38;;;;;;;1999.90;999.90;;;5.70;99.90;;;;;;4993356;28;20474;-66
2022/11/20 01:40:06;;;;;;;1999.90;999.90;;;5.60;99.90;;;;;;4993218;28;20453;-65
2022/11/20 01:45:53;;;;;;;1999.90;999.90;;;5.80;99.90;;;;;;4992927;28;20450;-67
2022/11/20 01:48:26;;;;;;;1999.90;999.90;;;5.80;99.90;;;;;;4993383;28;20447;-67
2022/11/20 01:50:54;;;;;;;1999.90;999.90;;;5.90;99.90;;;;;;4992936;28;20829;-66
2022/11/20 01:53:25;;;;;;;1999.90;999.90;;;5.80;99.90;;;;;;4993103;28;20544;-67
2022/11/20 01:55:54;;;;;;;1999.90;999.90;;;5.80;99.90;;;;;;4992800;28;20457;-67
2022/11/20 01:58:24;;;;;;;1999.90;999.90;;;5.90;99.90;;;;;;4993258;28;20470;-68
2022/11/20 02:00:51;;;;;;;1999.90;999.90;;;5.90;99.90;;;;;;4992575;28;20443;-65
2022/11/20 02:03:21;;;;;;;1999.90;999.90;;;5.80;99.90;;;;;;4993163;28;20462;-67
2022/11/20 02:05:55;;;;;;;1999.90;999.90;;;5.90;99.90;;;;;;4992851;28;20466;-65
2022/11/20 02:08:24;;;;;;;1999.90;999.90;;;5.90;99.90;;;;;;4992147;28;20577;-66
2022/11/20 02:10:50;;;;;;;1999.90;999.90;;;5.90;99.90;;;;;;4992776;28;20458;-66
2022/11/20 02:16:01;;;;;;;1999.90;999.90;;;5.90;99.90;;;;;;4993063;28;20577;-66
2022/11/20 02:18:30;;;;;;;1999.90;999.90;;;5.90;99.90;;;;;;4992329;28;20446;-67
2022/11/20 02:21:03;;;;;;;1999.90;999.90;;;5.90;99.90;;;;;;4992834;28;20447;-65
2022/11/20 02:23:35;;;;;;;1999.90;999.90;;;5.90;99.90;;;;;;4992191;28;20450;-66
2022/11/20 02:26:06;;;;;;;1999.90;999.90;;;5.90;99.90;;;;;;4992570;28;20975;-66
2022/11/20 02:28:33;;;;;;;1999.90;999.90;;;5.90;99.90;;;;;;4992367;28;20531;-66
2022/11/20 02:31:01;;;;;;;1999.90;999.90;;;6.00;99.90;;;;;;4992477;28;20449;-67
2022/11/20 02:33:28;;;;;;;1999.90;999.90;;;5.90;99.90;;;;;;4992396;28;20457;-66
2022/11/20 02:35:55;;;;;;;1999.90;999.90;;;5.90;99.90;;;;;;4992094;28;20447;-65
2022/11/20 02:38:21;;;;;;;1999.90;999.90;;;6.00;99.90;;;;;;4992498;28;20455;-66
2022/11/20 02:40:48;;;;;;;1999.90;999.90;;;6.10;99.90;;;;;;4991989;28;20477;-66
2022/11/20 02:43:17;;;;;;;1999.90;999.90;;;6.10;99.90;;;;;;4992317;28;20439;-67
2022/11/20 02:45:43;;;;;;;1999.90;999.90;;;6.10;99.90;;;;;;4991961;28;20467;-66
2022/11/20 02:48:10;;;;;;;1999.90;999.90;;;6.10;99.90;;;;;;4992474;28;20453;-65
2022/11/20 02:50:39;;;;;;;1999.90;999.90;;;6.10;99.90;;;;;;4991831;28;20450;-68
2022/11/20 02:53:06;;;;;;;1999.90;999.90;;;6.00;99.90;;;;;;4991712;28;20486;-66
2022/11/20 02:55:33;;;;;;;1999.90;999.90;;;6.00;99.90;;;;;;4992391;28;20477;-66
2022/11/20 02:58:00;;;;;;;1999.90;999.90;;;6.00;99.90;;;;;;4991830;28;20902;-66
2022/11/20 03:00:28;;;;;;;1999.90;999.90;;;6.00;99.90;;;;;;4992488;28;20447;-66
2022/11/20 03:02:55;;;;;;;1999.90;999.90;;;6.10;99.90;;;;;;4991614;28;20446;-66
2022/11/20 03:05:22;;;;;;;1999.90;999.90;;;6.10;99.90;;;;;;4992072;28;20488;-67
2022/11/20 03:07:48;;;;;;;1999.90;999.90;;;6.10;99.90;;;;;;4991554;28;20458;-66
2022/11/20 03:10:15;;;;;;;1999.90;999.90;;;6.10;99.90;;;;;;4992191;28;20528;-65
2022/11/20 03:12:42;;;;;;;1999.90;999.90;;;6.10;99.90;;;;;;4991492;28;20487;-67
2022/11/20 03:15:10;;;;;;;1999.90;999.90;;;6.10;99.90;;;;;;4991229;28;20481;-65
2022/11/20 03:17:38;;;;;;;1999.90;999.90;;;6.10;99.90;;;;;;4991576;28;20451;-66
2022/11/20 03:20:06;;;;;;;1999.90;999.90;;;6.20;99.90;;;;;;4991214;28;20824;-66
2022/11/20 03:22:33;;;;;;;1999.90;999.90;;;6.30;99.90;;;;;;4991245;28;20446;-66
2022/11/20 03:25:00;;;;;;;1999.90;999.90;;;6.30;99.90;;;;;;4991164;28;20517;-65
2022/11/20 03:27:26;;;;;;;1999.90;999.90;;;6.30;99.90;;;;;;4991578;28;20497;-67
2022/11/20 03:29:53;;;;;;;1999.90;999.90;;;6.30;99.90;;;;;;4991092;28;20996;-66
2022/11/20 03:32:20;;;;;;;1999.90;999.90;;;6.30;99.90;;;;;;4990869;28;21047;-66
2022/11/20 03:34:50;;;;;;;1999.90;999.90;;;6.30;99.90;;;;;;4991319;28;20489;-68
2022/11/20 03:37:17;;;;;;;1999.90;999.90;;;6.30;99.90;;;;;;4991062;28;20455;-67
2022/11/20 03:39:44;;;;;;;1999.90;999.90;;;6.30;99.90;;;;;;4991348;28;20447;-66
2022/11/20 03:42:44;;;;;;;1999.90;999.90;;;6.30;99.90;;;;;;4990488;28;20482;-67
2022/11/20 03:44:58;;;;;;;1999.90;999.90;;;6.30;99.90;;;;;;4991000;28;20498;-66
2022/11/20 03:47:25;;;;;;;1999.90;999.90;;;6.30;99.90;;;;;;4990617;28;20458;-66
2022/11/20 03:49:53;;;;;;;1999.90;999.90;;;6.30;99.90;;;;;;4991275;28;20461;-67
2022/11/20 03:52:19;;;;;;;1999.90;999.90;;;6.40;99.90;;;;;;4990367;28;20841;-68
2022/11/20 03:54:46;;;;;;;1999.90;999.90;;;6.40;99.90;;;;;;4990785;28;20533;-66
2022/11/20 03:57:13;;;;;;;1999.90;999.90;;;6.40;99.90;;;;;;4991053;28;20455;-67
2022/11/20 03:59:40;;;;;;;1999.90;999.90;;;6.40;99.90;;;;;;4990529;28;20451;-66
2022/11/20 04:02:06;;;;;;;1999.90;999.90;;;6.30;99.90;;;;;;4990497;28;20451;-66
2022/11/20 04:04:33;;;;;;;1999.90;999.90;;;6.40;99.90;;;;;;4990474;28;20470;-67
2022/11/20 04:07:01;;;;;;;1999.90;999.90;;;6.30;99.90;;;;;;4990955;28;20450;-65
2022/11/20 04:09:28;;;;;;;1999.90;999.90;;;6.40;99.90;;;;;;4990351;28;20450;-65
2022/11/20 04:11:55;;;;;;;1999.90;999.90;;;6.40;99.90;;;;;;4990405;28;20487;-66
2022/11/20 04:14:21;;;;;;;1999.90;999.90;;;6.40;99.90;;;;;;4990549;28;20481;-67
2022/11/20 04:16:48;;;;;;;1999.90;999.90;;;6.40;99.90;;;;;;4990402;28;20821;-66
2022/11/20 04:19:17;;;;;;;1999.90;999.90;;;6.40;99.90;;;;;;4990551;28;20455;-66
2022/11/20 04:21:45;;;;;;;1999.90;999.90;;;6.40;99.90;;;;;;4989994;28;20530;-66
2022/11/20 04:24:13;;;;;;;1999.90;999.90;;;6.50;99.90;;;;;;4990422;28;21031;-66
2022/11/20 04:26:39;;;;;;;1999.90;999.90;;;6.40;99.90;;;;;;4990109;28;20451;-66
2022/11/20 04:29:06;;;;;;;1999.90;999.90;;;6.40;99.90;;;;;;4990531;28;20448;-67
2022/11/20 04:31:35;;;;;;;1999.90;999.90;;;6.50;99.90;;;;;;4989721;28;20207;-66
2022/11/20 04:34:03;;;;;;;1999.90;999.90;;;6.50;99.90;;;;;;4990201;28;20466;-66
2022/11/20 04:36:30;;;;;;;1999.90;999.90;;;6.50;99.90;;;;;;4990481;28;20447;-66
2022/11/20 04:38:59;;;;;;;1999.90;999.90;;;6.50;99.90;;;;;;4989865;28;20450;-65
2022/11/20 04:41:29;;;;;;;1999.90;999.90;;;6.40;99.90;;;;;;4990135;28;20450;-65
2022/11/20 04:43:59;;;;;;;1999.90;999.90;;;6.40;99.90;;;;;;4989877;28;20463;-67
2022/11/20 04:46:26;;;;;;;1999.90;999.90;;;6.40;99.90;;;;;;4990437;28;20800;-65
2022/11/20 04:48:53;;;;;;;1999.90;999.90;;;6.40;99.90;;;;;;4990045;28;20446;-66
2022/11/20 04:51:20;;;;;;;1999.90;999.90;;;6.30;99.90;;;;;;4990147;28;20443;-67
2022/11/20 04:53:47;;;;;;;1999.90;999.90;;;6.30;99.90;;;;;;4989614;28;20486;-66
2022/11/20 04:56:14;;;;;;;1999.90;999.90;;;6.40;99.90;;;;;;4989986;28;20451;-65
2022/11/20 04:58:42;;;;;;;1999.90;999.90;;;6.30;99.90;;;;;;4990503;28;20455;-65
2022/11/20 05:01:12;;;;;;;1999.90;999.90;;;6.40;99.90;;;;;;4989869;28;20486;-66
2022/11/20 05:03:39;;;;;;;1999.90;999.90;;;6.40;99.90;;;;;;4990006;28;21011;-68
2022/11/20 05:06:07;;;;;;;1999.90;999.90;;;6.40;99.90;;;;;;4989995;28;20542;-66
2022/11/20 05:08:35;;;;;;;1999.90;999.90;;;6.40;99.90;;;;;;4990336;28;20442;-66
2022/11/20 05:11:03;;;;;;;1999.90;999.90;;;6.40;99.90;;;;;;4990085;28;20506;-65
2022/11/20 05:13:30;;;;;;;1999.90;999.90;;;6.40;99.90;;;;;;4990236;28;20493;-66
2022/11/20 05:16:02;;;;;;;1999.90;999.90;;;6.40;99.90;;;;;;4990359;28;20494;-66
2022/11/20 05:18:29;;;;;;;1999.90;999.90;;;6.40;99.90;;;;;;4989821;28;20458;-64
2022/11/20 05:20:57;;;;;;;1999.90;999.90;;;6.40;99.90;;;;;;4989897;28;20454;-66
2022/11/20 05:23:24;;;;;;;1999.90;999.90;;;6.40;99.90;;;;;;4989298;28;20446;-68
2022/11/20 05:25:53;;;;;;;1999.90;999.90;;;6.40;99.90;;;;;;4989982;28;20941;-65
2022/11/20 05:28:20;;;;;;;1999.90;999.90;;;6.40;99.90;;;;;;4989635;28;20443;-65
2022/11/20 05:30:47;;;;;;;1999.90;999.90;;;6.50;99.90;;;;;;4989816;28;20457;-65
2022/11/20 05:33:15;;;;;;;1999.90;999.90;;;6.40;99.90;;;;;;4989308;28;20470;-65
2022/11/20 05:35:42;;;;;;;1999.90;999.90;;;6.40;99.90;;;;;;4989596;28;20471;-66
2022/11/20 05:38:09;;;;;;;1999.90;999.90;;;6.50;99.90;;;;;;4989739;28;21133;-64
2022/11/20 05:40:36;;;;;;;1999.90;999.90;;;6.50;99.90;;;;;;4989376;28;20864;-66
2022/11/20 05:43:03;;;;;;;1999.90;999.90;;;6.50;99.90;;;;;;4990387;28;20442;-66
2022/11/20 05:45:30;;;;;;;1999.90;999.90;;;6.60;99.90;;;;;;4992840;28;20844;-66
2022/11/20 05:47:59;;;;;;;1999.90;999.90;;;6.60;99.90;;;;;;4993272;28;20485;-66
2022/11/20 05:50:28;;;;;;;1999.90;999.90;;;6.50;99.90;;;;;;4992872;28;20500;-66
2022/11/20 05:52:54;;;;;;;1999.90;999.90;;;6.50;99.90;;;;;;4992898;28;20489;-67
2022/11/20 05:55:21;;;;;;;1999.90;999.90;;;6.50;99.90;;;;;;4993144;28;20470;-66
2022/11/20 05:57:48;;;;;;;1999.90;999.90;;;6.50;99.90;;;;;;4992913;28;20957;-67
2022/11/20 06:00:16;;;;;;;1999.90;999.90;;;6.50;99.90;;;;;;4993278;28;20458;-66
2022/11/20 06:02:42;;;;;;;1999.90;999.90;;;6.50;99.90;;;;;;4992180;28;20963;-65
2022/11/20 06:05:09;;;;;;;1999.90;999.90;;;6.50;99.90;;;;;;4993145;28;20478;-66
2022/11/20 06:07:38;;;;;;;1999.90;999.90;;;6.60;99.90;;;;;;4992403;28;21067;-64
2022/11/20 06:10:05;;;;;;;1999.90;999.90;;;6.60;99.90;;;;;;4993020;28;20474;-66
2022/11/20 06:12:32;;;;;;;1999.90;999.90;;;6.60;99.90;;;;;;4992024;28;20479;-66
2022/11/20 06:14:59;;;;;;;1999.90;999.90;;;6.70;99.90;;;;;;4992764;28;20968;-66
2022/11/20 06:17:26;;;;;;;1999.90;999.90;;;6.70;99.90;;;;;;4992722;28;20536;-66
2022/11/20 06:19:53;;;;;;;1999.90;999.90;;;6.60;99.90;;;;;;4992345;28;20811;-67
2022/11/20 06:22:19;;;;;;;1999.90;999.90;;;6.70;99.90;;;;;;4992494;28;20442;-66
2022/11/20 06:24:48;;;;;;;1999.90;999.90;;;6.70;99.90;;;;;;4992307;28;20476;-67
2022/11/20 06:27:14;;;;;;;1999.90;999.90;;;6.70;99.90;;;;;;4992715;28;20453;-66
2022/11/20 06:29:41;;;;;;;1999.90;999.90;;;6.70;99.90;;;;;;4992122;28;20450;-67
2022/11/20 06:32:08;;;;;;;1999.90;999.90;;;6.60;99.90;;;;;;4992259;28;20961;-66
2022/11/20 06:34:34;;;;;;;1999.90;999.90;;;6.60;99.90;;;;;;4992333;28;20497;-66
2022/11/20 06:37:01;;;;;;;1999.90;999.90;;;6.60;99.90;;;;;;4992354;28;20450;-66
2022/11/20 06:39:28;;;;;;;1999.90;999.90;;;6.60;99.90;;;;;;4992529;28;20833;-65
2022/11/20 06:41:57;;;;;;;1999.90;999.90;;;6.60;99.90;;;;;;4991645;28;20455;-65
2022/11/20 06:44:23;;;;;;;1999.90;999.90;;;6.60;99.90;;;;;;4992163;28;20471;-66
2022/11/20 06:46:50;;;;;;;1999.90;999.90;;;6.60;99.90;;;;;;4991900;28;20453;-66
2022/11/20 06:49:17;;;;;;;1999.90;999.90;;;6.50;99.90;;;;;;4992518;28;20443;-68
2022/11/20 06:51:44;;;;;;;1999.90;999.90;;;6.60;99.90;;;;;;4991545;28;20450;-66
2022/11/20 06:54:10;;;;;;;1999.90;999.90;;;6.60;99.90;;;;;;4992071;28;20482;-65
2022/11/20 06:56:37;;;;;;;1999.90;999.90;;;6.60;99.90;;;;;;4992326;28;20451;-68
2022/11/20 06:59:07;;;;;;;1999.90;999.90;;;6.60;99.90;;;;;;4991517;28;20987;-66
2022/11/20 07:01:34;;;;;;;1999.90;999.90;;;6.60;99.90;;;;;;4992010;28;20447;-68
2022/11/20 07:04:01;;;;;;;1999.90;999.90;;;6.60;99.90;;;;;;4991515;28;20470;-66
2022/11/20 07:06:28;;;;;;;1999.90;999.90;;;6.60;99.90;;;;;;4991865;28;20542;-66
2022/11/20 07:08:55;;;;;;;1999.90;999.90;;;6.60;99.90;;;;;;4991986;28;20461;-66
2022/11/20 07:11:22;;;;;;;1999.90;999.90;;;6.60;99.90;;;;;;4991853;28;20465;-66
2022/11/20 07:13:48;;;;;;;1999.90;999.90;;;6.70;99.90;;;;;;4991541;28;20994;-66
2022/11/20 07:16:17;;;;;;;1999.90;999.90;;;6.70;99.90;;;;;;4992897;28;20461;-66
2022/11/20 07:18:44;;;;;;;1999.90;999.90;;;6.80;99.90;;;;;;4992175;28;20542;-65
2022/11/20 07:21:11;;;;;;;1999.90;999.90;;;6.70;99.90;;;;;;4991548;28;20834;-66
2022/11/20 07:23:38;;;;;;;1999.90;999.90;;;6.80;99.90;;;;;;4991821;28;20454;-66
2022/11/20 07:26:07;;;;;;;1999.90;999.90;;;6.70;99.90;;;;;;4991333;28;20486;-66
2022/11/20 07:28:34;;;;;;;1999.90;999.90;;;6.80;99.90;;;;;;4991942;28;20505;-65
2022/11/20 07:31:01;;;;;;;1999.90;999.90;;;6.90;99.90;;;;;;4990912;28;20490;-67
2022/11/20 07:33:30;;;;;;;1999.90;999.90;;;7.00;99.90;;;;;;4991352;28;20474;-66
2022/11/20 07:35:58;;;;;;;1999.90;999.90;;;7.00;99.90;;;;;;4991322;28;20454;-67
2022/11/20 07:38:25;;;;;;;1999.90;999.90;;;7.10;99.90;;;;;;4990916;28;20935;-66
2022/11/20 07:40:55;;;;;;;1999.90;999.90;;;7.10;99.90;;;;;;4991362;28;20462;-64
2022/11/20 07:43:21;;;;;;;1999.90;999.90;;;7.30;99.90;;;;;;4990573;28;20459;-66
2022/11/20 07:45:48;;;;;;;1999.90;999.90;;;7.40;99.90;;;;;;4991322;28;20470;-65
2022/11/20 07:48:15;;;;;;;1999.90;999.90;;;7.40;99.90;;;;;;4990779;28;20457;-67
2022/11/20 07:50:43;;;;;;;1999.90;999.90;;;7.50;99.90;;;;;;4991089;28;20530;-67
2022/11/20 07:53:10;;;;;;;1999.90;999.90;;;7.50;99.90;;;;;;4990377;28;20490;-68
2022/11/20 07:55:37;;;;;;;1999.90;999.90;;;7.60;99.90;;;;;;4991249;28;20545;-65
2022/11/20 07:58:04;;;;;;;1999.90;999.90;;;7.60;99.90;;;;;;4991118;28;20458;-67
2022/11/20 08:00:31;;;;;;;1999.90;999.90;;;7.50;99.90;;;;;;4990722;28;20469;-67
2022/11/20 08:02:58;;;;;;;1999.90;999.90;;;7.50;99.90;;;;;;4990720;28;20442;-66
2022/11/20 08:05:25;;;;;;;1999.90;999.90;;;7.50;99.90;;;;;;4989949;28;20474;-66
2022/11/20 08:07:53;;;;;;;1999.90;999.90;;;7.50;99.90;;;;;;4990854;28;20821;-66
2022/11/20 08:10:20;;;;;;;1999.90;999.90;;;7.50;99.90;;;;;;4990525;28;20629;-66
2022/11/20 08:15:32;;;;;;;1999.90;999.90;;;7.60;99.90;;;;;;4990416;28;20449;-66
2022/11/20 08:18:04;;;;;;;1999.90;999.90;;;7.60;99.90;;;;;;4990429;28;20447;-66
2022/11/20 08:20:31;;;;;;;1999.90;999.90;;;7.70;99.90;;;;;;4990806;28;20530;-66
2022/11/20 08:23:05;;;;;;;1999.90;999.90;;;7.80;99.90;;;;;;4990147;28;20451;-66
2022/11/20 08:25:32;;;;;;;1999.90;999.90;;;7.90;99.90;;;;;;4990875;28;20466;-66
2022/11/20 08:28:00;;;;;;;1999.90;999.90;;;8.00;99.90;;;;;;4990212;28;20455;-68
2022/11/20 08:30:27;;;;;;;1999.90;999.90;;;8.10;99.90;;;;;;4990874;28;20468;-67
2022/11/20 08:32:54;;;;;;;1999.90;999.90;;;8.30;99.90;;;;;;4989760;28;20449;-66
2022/11/20 08:35:22;;;;;;;1999.90;999.90;;;8.40;99.90;;;;;;4990297;28;20474;-68
2022/11/20 08:37:49;;;;;;;1999.90;999.90;;;8.40;99.90;;;;;;4989963;28;20457;-66
2022/11/20 08:40:17;;;;;;;1999.90;999.90;;;8.40;99.90;;;;;;4990225;28;20450;-66
2022/11/20 08:42:48;;;;;;;1999.90;999.90;;;8.50;99.90;;;;;;4989960;28;20818;-66
2022/11/20 08:45:15;;;;;;;1999.90;999.90;;;8.50;99.90;;;;;;4989689;28;20972;-66
2022/11/20 08:47:42;;;;;;;1999.90;999.90;;;8.60;99.90;;;;;;4990193;28;20453;-66
2022/11/20 08:50:10;;;;;;;1999.90;999.90;;;8.70;99.90;;;;;;4990074;28;20446;-66
2022/11/20 08:52:37;;;;;;;1999.90;999.90;;;8.90;99.90;;;;;;4989997;28;20463;-68
2022/11/20 08:55:05;;;;;;;1999.90;999.90;;;8.90;99.90;;;;;;4989864;28;20486;-66
2022/11/20 08:57:34;;;;;;;1999.90;999.90;;;8.90;99.90;;;;;;4990238;28;20453;-67
2022/11/20 09:00:01;;;;;;;1999.90;999.90;;;8.90;99.90;;;;;;4990077;28;20450;-68
2022/11/20 09:02:28;;;;;;;1999.90;999.90;;;8.90;99.90;;;;;;4989693;28;20458;-66
2022/11/20 09:04:55;;;;;;;1999.90;999.90;;;8.90;99.90;;;;;;4990235;28;20469;-68
2022/11/20 09:07:22;;;;;;;1999.90;999.90;;;8.90;99.90;;;;;;4989891;28;20454;-66
2022/11/20 09:09:48;;;;;;;1999.90;999.90;;;8.80;99.90;;;;;;4990300;28;20451;-66
2022/11/20 09:12:15;;;;;;;1999.90;999.90;;;8.80;99.90;;;;;;4989356;28;20462;-66
2022/11/20 09:14:43;;;;;;;1999.90;999.90;;;8.80;99.90;;;;;;4990224;28;20513;-66
2022/11/20 09:17:13;;;;;;;1999.90;999.90;;;8.90;99.90;;;;;;4990821;28;20461;-65
2022/11/20 09:19:40;;;;;;;1999.90;999.90;;;8.90;99.90;;;;;;4993970;28;20529;-66
2022/11/20 09:22:06;;;;;;;1999.90;999.90;;;8.90;99.90;;;;;;4993471;28;21030;-66
2022/11/20 09:24:33;;;;;;;1999.90;999.90;;;8.90;99.90;;;;;;4993403;28;20466;-67
2022/11/20 09:27:03;;;;;;;1999.90;999.90;;;8.90;99.90;;;;;;4984494;28;20457;-66
2022/11/20 09:29:30;;;;;;;1999.90;999.90;;;8.80;99.90;;;;;;4986184;28;20447;-67
2022/11/20 09:31:58;;;;;;;1999.90;999.90;;;8.70;99.90;;;;;;4993152;28;20462;-67
2022/11/20 09:34:25;;;;;;;1999.90;999.90;;;8.80;99.90;;;;;;4987415;28;21007;-65
2022/11/20 09:36:51;;;;;;;1999.90;999.90;;;8.80;99.90;;;;;;4990446;28;20450;-65
2022/11/20 09:39:18;;;;;;;1999.90;999.90;;;8.80;99.90;;;;;;4991035;28;20451;-66
2022/11/20 09:42:03;;;;;;;1999.90;999.90;;;8.80;99.90;;;;;;4992552;28;20443;-66
2022/11/20 09:44:41;;;;;;;1999.90;999.90;;;8.70;99.90;;;;;;4987543;28;20466;-65
2022/11/20 09:47:17;;;;;;;1999.90;999.90;;;8.60;99.90;;;;;;4987866;28;20495;-66
2022/11/20 09:50:02;;;;;;;1999.90;999.90;;;8.60;99.90;;;;;;4986344;28;20457;-65
2022/11/20 09:52:41;;;;;;;1999.90;999.90;;;8.60;99.90;;;;;;4988840;28;20461;-68
2022/11/20 09:55:11;;;;;;;1999.90;999.90;;;8.60;99.90;;;;;;4992855;28;21090;-66
2022/11/20 09:57:41;;;;;;;1999.90;999.90;;;8.60;99.90;;;;;;4987233;28;20454;-67
2022/11/20 10:00:12;;;;;;;1999.90;999.90;;;8.60;99.90;;;;;;4989879;28;20461;-66
2022/11/20 10:02:46;;;;;;;1999.90;999.90;;;8.60;99.90;;;;;;4986884;28;20529;-67
2022/11/20 10:05:18;;;;;;;1999.90;999.90;;;8.60;99.90;;;;;;4990021;28;20474;-69
2022/11/20 10:07:54;;;;;;;1999.90;999.90;;;8.60;99.90;;;;;;4991972;28;20462;-68
2022/11/20 10:10:30;;;;;;;1999.90;999.90;;;8.60;99.90;;;;;;4985286;28;20459;-67
2022/11/20 10:13:13;;;;;;;1999.90;999.90;;;8.50;99.90;;;;;;4992634;28;20455;-67
2022/11/20 10:15:51;;;;;;;1999.90;999.90;;;8.30;99.90;;;;;;4986857;28;20462;-67
2022/11/20 10:18:34;;;;;;;1999.90;999.90;;;8.10;99.90;;;;;;4992708;28;20447;-67
2022/11/20 10:21:10;;;;;;;1999.90;999.90;;;8.00;99.90;;;;;;4972231;28;20454;-67
2022/11/20 10:23:53;;;;;;;1999.90;999.90;;;7.90;99.90;;;;;;4977168;28;20455;-66
2022/11/20 10:26:27;;;;;;;1999.90;999.90;;;7.90;99.90;;;;;;4977950;28;20458;-67
2022/11/20 10:29:08;;;;;;;1999.90;999.90;;;7.80;99.90;;;;;;4970642;28;20454;-67
2022/11/20 10:31:37;;;;;;;1999.90;999.90;;;7.80;99.90;;;;;;4974549;28;21036;-65
2022/11/20 10:34:11;;;;;;;1999.90;999.90;;;7.80;99.90;;;;;;4973623;28;20605;-66
2022/11/20 10:36:44;;;;;;;1999.90;999.90;;;7.70;99.90;;;;;;4976980;28;20458;-65
2022/11/20 10:39:19;;;;;;;1999.90;999.90;;;7.70;99.90;;;;;;4987169;28;20447;-65
2022/11/20 10:41:51;;;;;;;1999.90;999.90;;;7.70;99.90;;;;;;4990676;28;20448;-65
2022/11/20 10:45:00;;;;;;;1999.90;999.90;;;7.70;99.90;;;;;;4991646;28;20459;-67
2022/11/20 10:47:14;;;;;;;1999.90;999.90;;;7.70;99.90;;;;;;4983072;28;20926;-67
2022/11/20 10:49:45;;;;;;;1999.90;999.90;;;7.70;99.90;;;;;;4983472;28;20574;-65
2022/11/20 10:52:19;;;;;;;1999.90;999.90;;;7.70;99.90;;;;;;4982231;28;20968;-67
2022/11/20 10:54:55;;;;;;;1999.90;999.90;;;7.70;99.90;;;;;;4981298;28;20975;-69
2022/11/20 10:57:36;;;;;;;1999.90;999.90;;;7.60;99.90;;;;;;4978245;28;20462;-68
2022/11/20 11:00:07;;;;;;;1999.90;999.90;;;7.50;99.90;;;;;;4980122;28;20454;-67
2022/11/20 11:02:39;;;;;;;1999.90;999.90;;;7.40;99.90;;;;;;4981784;28;20455;-69
2022/11/20 11:05:18;;;;;;;1999.90;999.90;;;7.40;99.90;;;;;;4982838;28;20471;-71
2022/11/20 11:07:46;;;;;;;1999.90;999.90;;;7.40;99.90;;;;;;4977434;28;20529;-67
2022/11/20 11:10:16;;;;;;;1999.90;999.90;;;7.40;99.90;;;;;;4980734;28;20485;-68
2022/11/20 11:12:46;;;;;;;1999.90;999.90;;;7.50;99.90;;;;;;4979252;28;20912;-68
2022/11/20 11:15:26;;;;;;;1999.90;999.90;;;7.50;99.90;;;;;;4984163;28;20501;-69
2022/11/20 11:17:53;;;;;;;1999.90;999.90;;;7.70;99.90;;;;;;4987637;28;20453;-68
2022/11/20 11:20:23;;;;;;;1999.90;999.90;;;7.90;99.90;;;;;;4986040;28;20458;-70
2022/11/20 11:22:52;;;;;;;1999.90;999.90;;;7.90;99.90;;;;;;4994323;28;21087;-70
2022/11/20 11:25:25;;;;;;;1999.90;999.90;;;8.00;99.90;;;;;;4996941;28;20993;-69
2022/11/20 11:27:54;;;;;;;1999.90;999.90;;;8.10;99.90;;;;;;4995274;28;20526;-68
2022/11/20 11:30:21;;;;;;;1999.90;999.90;;;8.20;99.90;;;;;;4989081;28;21004;-68
2022/11/20 11:32:48;;;;;;;1999.90;999.90;;;8.30;99.90;;;;;;4989507;28;20542;-66
2022/11/20 11:35:25;;;;;;;1999.90;999.90;;;8.50;99.90;;;;;;4990474;28;20505;-68
2022/11/20 11:37:54;;;;;;;1999.90;999.90;;;8.50;99.90;;;;;;4989414;28;20446;-66
2022/11/20 11:40:26;;;;;;;1999.90;999.90;;;8.50;99.90;;;;;;4986608;28;20529;-69
2022/11/20 11:42:58;;;;;;;1999.90;999.90;;;8.50;99.90;;;;;;4987765;28;21017;-68
2022/11/20 11:45:25;;;;;;;1999.90;999.90;;;8.50;99.90;;;;;;4982504;28;20685;-66
2022/11/20 11:47:55;;;;;;;1999.90;999.90;;;8.60;99.90;;;;;;4980850;28;20517;-66
2022/11/20 11:50:25;;;;;;;1999.90;999.90;;;8.50;99.90;;;;;;4977984;28;20466;-68
2022/11/20 11:53:02;;;;;;;1999.90;999.90;;;8.60;99.90;;;;;;4980980;28;20462;-68
2022/11/20 11:55:35;;;;;;;1999.90;999.90;;;8.70;99.90;;;;;;4980173;28;20842;-66
2022/11/20 11:58:17;;;;;;;1999.90;999.90;;;8.80;99.90;;;;;;4983609;28;20458;-66
2022/11/20 12:00:52;;;;;;;1999.90;999.90;;;9.10;99.90;;;;;;4982713;28;20447;-67
2022/11/20 12:03:25;;;;;;;1999.90;999.90;;;9.40;99.90;;;;;;4989630;28;20461;-65
2022/11/20 12:05:58;;;;;;;1999.90;999.90;;;9.70;99.90;;;;;;4985033;28;20478;-69
2022/11/20 12:08:29;;;;;;;1999.90;999.90;;;9.90;99.90;;;;;;4992082;28;20457;-65
2022/11/20 12:11:00;;;;;;;1999.90;999.90;;;9.90;99.90;;;;;;4984825;28;20490;-68
2022/11/20 12:13:40;;;;;;;1999.90;999.90;;;9.60;99.90;;;;;;4984449;28;20447;-66
2022/11/20 12:16:12;;;;;;;1999.90;999.90;;;9.50;99.90;;;;;;4988265;28;21020;-65
2022/11/20 12:18:39;;;;;;;1999.90;999.90;;;9.50;99.90;;;;;;4989258;28;20463;-66
2022/11/20 12:21:19;;;;;;;1999.90;999.90;;;9.50;99.90;;;;;;4987417;28;20453;-66
2022/11/20 12:24:00;;;;;;;1999.90;999.90;;;9.50;99.90;;;;;;4990118;28;20460;-65
2022/11/20 12:26:45;;;;;;;1999.90;999.90;;;9.40;99.90;;;;;;4988861;28;20851;-67